createdAt,value
2023-02-06T00:00:52.699Z,76.71
2023-02-06T00:01:55.505Z,76.48
2023-02-06T00:03:09.207Z,76.58
2023-02-06T00:04:11.702Z,76.80
2023-02-06T00:05:14.712Z,76.81
2023-02-06T00:06:16.498Z,76.70
2023-02-06T00:07:18.977Z,76.74
2023-02-06T00:08:20.929Z,76.72
2023-02-06T00:09:23.391Z,77.06
2023-02-06T00:10:31.567Z,77.02
2023-02-06T00:11:34.714Z,76.89
2023-02-06T00:12:36.261Z,76.97
2023-02-06T00:13:38.927Z,76.73
2023-02-06T00:14:42.152Z,76.99
2023-02-06T00:15:50.452Z,77.01
2023-02-06T00:16:53.056Z,77.19
2023-02-06T00:17:55.717Z,76.96
2023-02-06T00:18:58.645Z,77.33
2023-02-06T00:20:01.145Z,77.23
2023-02-06T00:21:02.662Z,77.10
2023-02-06T00:22:05.253Z,77.34
2023-02-06T00:23:07.008Z,77.44
2023-02-06T00:24:09.712Z,77.55
2023-02-06T00:25:11.279Z,77.48
2023-02-06T00:26:13.739Z,77.46
2023-02-06T00:27:15.241Z,77.40
2023-02-06T00:28:17.736Z,77.51
2023-02-06T00:29:19.319Z,77.41
2023-02-06T00:30:23.208Z,77.78
2023-02-06T00:31:25.169Z,77.57
2023-02-06T00:32:32.017Z,77.74
2023-02-06T00:33:43.609Z,77.63
2023-02-06T00:34:46.919Z,77.73
2023-02-06T00:35:48.452Z,77.45
2023-02-06T00:36:51.871Z,77.59
2023-02-06T00:37:53.586Z,77.81
2023-02-06T00:38:56.162Z,77.75
2023-02-06T00:39:57.904Z,77.48
2023-02-06T00:41:10.480Z,77.96
2023-02-06T00:42:12.004Z,77.82
2023-02-06T00:43:14.915Z,77.98
2023-02-06T00:44:16.540Z,78.03
2023-02-06T00:45:19.422Z,78.19
2023-02-06T00:46:33.526Z,77.89
2023-02-06T00:47:35.631Z,78.12
2023-02-06T00:48:38.512Z,77.85
2023-02-06T00:49:40.150Z,77.93
2023-02-06T00:50:42.728Z,78.12
2023-02-06T00:51:47.992Z,78.01
2023-02-06T00:52:50.546Z,77.99
2023-02-06T00:53:52.090Z,78.16
2023-02-06T00:54:54.576Z,78.09
2023-02-06T00:55:56.106Z,78.27
2023-02-06T00:56:58.990Z,78.24
2023-02-06T00:58:00.583Z,78.33
2023-02-06T00:59:03.120Z,78.36
2023-02-06T01:00:06.114Z,78.53
2023-02-06T01:01:16.575Z,78.43
2023-02-06T01:02:19.738Z,78.52
2023-02-06T01:03:22.477Z,78.52
2023-02-06T01:04:24.431Z,78.58
2023-02-06T01:05:29.513Z,78.67
2023-02-06T01:06:31.579Z,78.69
2023-02-06T01:07:34.077Z,78.79
2023-02-06T01:08:36.588Z,78.60
2023-02-06T01:09:38.086Z,78.80
2023-02-06T01:10:41.769Z,78.78
2023-02-06T01:11:43.307Z,78.89
2023-02-06T01:12:45.850Z,78.79
2023-02-06T01:13:49.001Z,78.80
2023-02-06T01:14:50.741Z,78.99
2023-02-06T01:15:53.484Z,78.83
2023-02-06T01:16:55.060Z,79.09
2023-02-06T01:17:58.883Z,79.09
2023-02-06T01:19:00.405Z,79.01
2023-02-06T01:20:14.661Z,78.98
2023-02-06T01:21:20.354Z,79.16
2023-02-06T01:22:25.339Z,79.29
2023-02-06T01:23:26.852Z,79.22
2023-02-06T01:24:29.415Z,79.24
2023-02-06T01:25:30.997Z,79.06
2023-02-06T01:26:33.824Z,79.14
2023-02-06T01:27:36.698Z,79.10
2023-02-06T01:28:40.498Z,79.31
2023-02-06T01:29:52.973Z,79.40
2023-02-06T01:30:54.793Z,79.33
2023-02-06T01:31:57.348Z,79.47
2023-02-06T01:33:00.279Z,79.24
2023-02-06T01:34:02.983Z,79.54
2023-02-06T01:35:05.633Z,79.51
2023-02-06T01:36:08.921Z,79.37
2023-02-06T01:37:10.532Z,79.50
2023-02-06T01:38:13.082Z,79.66
2023-02-06T01:39:14.588Z,79.38
2023-02-06T01:40:18.131Z,79.41
2023-02-06T01:41:22.668Z,79.63
2023-02-06T01:42:25.182Z,79.23
2023-02-06T01:43:30.709Z,79.64
2023-02-06T01:44:41.145Z,79.67
2023-02-06T01:45:45.178Z,79.59
2023-02-06T01:46:49.429Z,79.51
2023-02-06T01:47:54.252Z,79.43
2023-02-06T01:48:58.160Z,79.75
2023-02-06T01:49:59.900Z,79.47
2023-02-06T01:51:04.189Z,79.57
2023-02-06T01:52:14.120Z,79.53
2023-02-06T01:53:18.480Z,79.67
2023-02-06T01:54:20.516Z,79.61
2023-02-06T01:55:23.107Z,79.55
2023-02-06T01:56:27.445Z,79.60
2023-02-06T01:57:30.094Z,79.77
2023-02-06T01:58:37.015Z,79.84
2023-02-06T01:59:44.562Z,79.81
2023-02-06T02:00:55.019Z,79.83
2023-02-06T02:01:59.326Z,79.82
2023-02-06T02:03:02.800Z,79.82
2023-02-06T02:04:10.827Z,79.83
2023-02-06T02:05:14.115Z,79.74
2023-02-06T02:06:19.466Z,80.03
2023-02-06T02:07:25.723Z,79.86
2023-02-06T02:08:33.446Z,79.64
2023-02-06T02:09:36.198Z,79.83
2023-02-06T02:10:37.855Z,79.97
2023-02-06T02:11:41.746Z,80.02
2023-02-06T02:12:43.256Z,79.76
2023-02-06T02:13:46.266Z,80.04
2023-02-06T02:14:50.326Z,80.07
2023-02-06T02:15:59.743Z,80.00
2023-02-06T02:17:14.854Z,79.93
2023-02-06T02:18:32.532Z,79.98
2023-02-06T02:20:11.033Z,80.00
2023-02-06T02:21:43.365Z,80.12
2023-02-06T02:22:54.857Z,80.10
2023-02-06T02:24:08.716Z,80.30
2023-02-06T02:25:40.382Z,80.16
2023-02-06T02:26:58.702Z,80.36
2023-02-06T02:28:51.574Z,80.19
2023-02-06T02:30:23.498Z,80.25
2023-02-06T02:31:55.646Z,79.98
2023-02-06T02:33:22.028Z,80.37
2023-02-06T02:35:01.272Z,80.14
2023-02-06T02:36:11.777Z,80.15
2023-02-06T02:37:23.458Z,80.21
2023-02-06T02:38:37.786Z,80.35
2023-02-06T02:39:46.443Z,80.43
2023-02-06T02:40:59.309Z,80.49
2023-02-06T02:42:08.002Z,80.48
2023-02-06T02:43:19.161Z,80.56
2023-02-06T02:44:27.600Z,80.64
2023-02-06T02:45:37.305Z,80.68
2023-02-06T02:46:42.884Z,80.58
2023-02-06T02:47:48.488Z,80.65
2023-02-06T02:48:53.043Z,80.51
2023-02-06T02:50:00.061Z,80.62
2023-02-06T02:51:03.121Z,80.69
2023-02-06T02:52:05.913Z,80.46
2023-02-06T02:53:16.981Z,80.54
2023-02-06T02:54:21.175Z,80.38
2023-02-06T02:55:23.333Z,80.46
2023-02-06T02:56:27.308Z,80.30
2023-02-06T02:57:31.555Z,80.38
2023-02-06T02:58:36.409Z,80.65
2023-02-06T02:59:41.220Z,80.45
2023-02-06T03:00:48.764Z,80.51
2023-02-06T03:01:56.037Z,80.63
2023-02-06T03:03:00.010Z,80.48
2023-02-06T03:04:07.072Z,80.60
2023-02-06T03:05:13.686Z,80.56
2023-02-06T03:06:48.036Z,80.59
2023-02-06T03:08:01.624Z,80.49
2023-02-06T03:09:11.213Z,80.61
2023-02-06T03:10:20.146Z,80.55
2023-02-06T03:11:23.571Z,80.70
2023-02-06T03:12:44.350Z,80.62
2023-02-06T03:13:55.010Z,80.78
2023-02-06T03:15:03.306Z,80.72
2023-02-06T03:16:12.045Z,80.71
2023-02-06T03:17:19.042Z,80.69
2023-02-06T03:18:26.317Z,80.86
2023-02-06T03:19:33.022Z,80.78
2023-02-06T03:20:40.151Z,80.72
2023-02-06T03:21:43.196Z,80.89
2023-02-06T03:22:49.750Z,80.84
2023-02-06T03:23:55.961Z,80.63
2023-02-06T03:25:00.009Z,80.80
2023-02-06T03:26:05.702Z,80.65
2023-02-06T03:27:14.265Z,80.66
2023-02-06T03:28:21.099Z,80.75
2023-02-06T03:29:36.276Z,80.66
2023-02-06T03:30:42.469Z,80.80
2023-02-06T03:31:50.529Z,80.82
2023-02-06T03:32:57.513Z,81.04
2023-02-06T03:34:06.140Z,80.94
2023-02-06T03:35:19.835Z,81.06
2023-02-06T03:36:24.012Z,81.08
2023-02-06T03:37:27.691Z,80.99
2023-02-06T03:38:30.243Z,80.98
2023-02-06T03:39:31.843Z,80.92
2023-02-06T03:40:35.256Z,80.97
2023-02-06T03:41:39.298Z,80.94
2023-02-06T03:42:46.501Z,81.03
2023-02-06T03:43:51.078Z,80.80
2023-02-06T03:45:10.264Z,80.91
2023-02-06T03:46:15.024Z,80.93
2023-02-06T03:47:19.254Z,81.23
2023-02-06T03:48:34.950Z,80.85
2023-02-06T03:49:40.378Z,80.94
2023-02-06T03:50:44.366Z,80.88
2023-02-06T03:51:52.548Z,80.98
2023-02-06T03:52:57.894Z,80.94
2023-02-06T03:54:03.713Z,81.03
2023-02-06T03:55:10.127Z,81.14
2023-02-06T03:56:20.179Z,80.97
2023-02-06T03:57:24.963Z,80.96
2023-02-06T03:58:27.592Z,81.02
2023-02-06T03:59:31.287Z,81.10
2023-02-06T04:00:38.374Z,80.98
2023-02-06T04:01:53.015Z,81.08
2023-02-06T04:03:06.172Z,81.11
2023-02-06T04:04:07.827Z,80.96
2023-02-06T04:05:20.581Z,81.15
2023-02-06T04:06:22.425Z,80.74
2023-02-06T04:07:28.211Z,81.05
2023-02-06T04:08:29.739Z,81.11
2023-02-06T04:09:32.235Z,81.22
2023-02-06T04:10:33.841Z,81.22
2023-02-06T04:11:46.358Z,81.21
2023-02-06T04:12:47.909Z,81.30
2023-02-06T04:13:50.417Z,81.30
2023-02-06T04:14:52.588Z,81.40
2023-02-06T04:15:56.136Z,81.05
2023-02-06T04:16:57.644Z,81.16
2023-02-06T04:18:01.741Z,81.22
2023-02-06T04:19:03.474Z,81.12
2023-02-06T04:20:06.931Z,81.14
2023-02-06T04:21:12.718Z,81.05
2023-02-06T04:22:16.391Z,81.05
2023-02-06T04:23:28.596Z,81.15
2023-02-06T04:24:31.104Z,81.06
2023-02-06T04:25:33.922Z,80.98
2023-02-06T04:26:35.669Z,81.14
2023-02-06T04:27:38.849Z,80.98
2023-02-06T04:28:41.329Z,80.99
2023-02-06T04:29:42.832Z,81.09
2023-02-06T04:30:45.409Z,81.25
2023-02-06T04:32:01.917Z,81.37
2023-02-06T04:33:05.559Z,81.21
2023-02-06T04:34:07.240Z,81.11
2023-02-06T04:35:09.846Z,81.21
2023-02-06T04:36:12.535Z,81.20
2023-02-06T04:37:14.394Z,81.17
2023-02-06T04:38:24.441Z,81.18
2023-02-06T04:39:36.772Z,81.30
2023-02-06T04:40:39.289Z,81.26
2023-02-06T04:41:40.948Z,81.22
2023-02-06T04:42:43.485Z,81.26
2023-02-06T04:43:45.434Z,81.27
2023-02-06T04:44:47.980Z,81.32
2023-02-06T04:45:49.523Z,81.46
2023-02-06T04:46:52.393Z,81.51
2023-02-06T04:47:53.990Z,81.41
2023-02-06T04:48:57.566Z,81.49
2023-02-06T04:50:01.433Z,81.17
2023-02-06T04:51:11.812Z,81.29
2023-02-06T04:52:14.740Z,81.28
2023-02-06T04:53:17.434Z,81.26
2023-02-06T04:54:19.009Z,81.21
2023-02-06T04:55:23.330Z,81.22
2023-02-06T04:56:25.820Z,81.40
2023-02-06T04:57:28.337Z,81.48
2023-02-06T04:58:29.922Z,81.45
2023-02-06T04:59:32.426Z,81.46
2023-02-06T05:00:34.153Z,81.41
2023-02-06T05:01:36.746Z,81.30
2023-02-06T05:02:39.725Z,81.39
2023-02-06T05:03:42.391Z,81.53
2023-02-06T05:04:43.930Z,81.41
2023-02-06T05:05:46.590Z,81.48
2023-02-06T05:06:48.151Z,81.38
2023-02-06T05:07:51.335Z,81.50
2023-02-06T05:08:54.201Z,81.47
2023-02-06T05:09:56.691Z,81.60
2023-02-06T05:10:59.598Z,81.52
2023-02-06T05:12:02.334Z,81.55
2023-02-06T05:13:03.848Z,81.65
2023-02-06T05:14:06.499Z,81.60
2023-02-06T05:15:10.440Z,81.73
2023-02-06T05:16:15.349Z,81.65
2023-02-06T05:17:18.217Z,81.60
2023-02-06T05:18:19.875Z,81.74
2023-02-06T05:19:22.457Z,81.79
2023-02-06T05:20:24.480Z,81.92
2023-02-06T05:21:28.477Z,82.02
2023-02-06T05:22:30.062Z,82.01
2023-02-06T05:23:33.295Z,82.01
2023-02-06T05:24:34.902Z,81.93
2023-02-06T05:25:37.953Z,81.95
2023-02-06T05:26:40.958Z,82.18
2023-02-06T05:27:43.449Z,82.10
2023-02-06T05:28:45.029Z,82.27
2023-02-06T05:29:47.742Z,82.14
2023-02-06T05:30:49.719Z,81.96
2023-02-06T05:31:52.993Z,82.40
2023-02-06T05:32:54.519Z,82.17
2023-02-06T05:33:57.024Z,82.32
2023-02-06T05:34:58.544Z,82.23
2023-02-06T05:36:03.669Z,82.60
2023-02-06T05:37:15.190Z,82.39
2023-02-06T05:38:24.054Z,82.39
2023-02-06T05:39:32.493Z,82.37
2023-02-06T05:40:35.095Z,82.38
2023-02-06T05:41:36.642Z,82.70
2023-02-06T05:42:40.506Z,82.60
2023-02-06T05:43:42.210Z,82.60
2023-02-06T05:44:44.758Z,82.75
2023-02-06T05:45:47.009Z,82.75
2023-02-06T05:46:59.496Z,82.70
2023-02-06T05:48:01.090Z,82.67
2023-02-06T05:49:03.637Z,82.81
2023-02-06T05:50:05.957Z,82.74
2023-02-06T05:51:08.954Z,82.89
2023-02-06T05:52:11.085Z,82.78
2023-02-06T05:53:13.856Z,82.70
2023-02-06T05:54:18.230Z,82.68
2023-02-06T05:55:20.715Z,82.42
2023-02-06T05:56:22.398Z,82.50
2023-02-06T05:57:26.186Z,82.42
2023-02-06T05:58:36.093Z,82.44
2023-02-06T05:59:37.638Z,82.59
2023-02-06T06:00:40.308Z,82.58
2023-02-06T06:01:41.879Z,82.74
2023-02-06T06:02:44.343Z,82.74
2023-02-06T06:03:46.015Z,82.68
2023-02-06T06:04:48.655Z,83.03
2023-02-06T06:05:50.274Z,82.71
2023-02-06T06:06:53.333Z,82.77
2023-02-06T06:07:54.962Z,82.69
2023-02-06T06:09:01.140Z,82.61
2023-02-06T06:10:04.573Z,82.91
2023-02-06T06:11:11.064Z,82.74
2023-02-06T06:12:12.651Z,82.80
2023-02-06T06:13:15.242Z,82.98
2023-02-06T06:14:19.510Z,82.90
2023-02-06T06:15:22.079Z,83.00
2023-02-06T06:16:23.962Z,82.82
2023-02-06T06:17:26.850Z,82.92
2023-02-06T06:18:29.381Z,82.79
2023-02-06T06:19:30.944Z,82.90
2023-02-06T06:20:36.654Z,82.63
2023-02-06T06:21:48.166Z,82.78
2023-02-06T06:22:58.931Z,82.99
2023-02-06T06:24:01.034Z,82.64
2023-02-06T06:25:04.964Z,82.89
2023-02-06T06:26:06.676Z,82.70
2023-02-06T06:27:10.604Z,82.63
2023-02-06T06:28:12.418Z,82.76
2023-02-06T06:29:14.982Z,82.87
2023-02-06T06:30:18.192Z,82.62
2023-02-06T06:31:21.239Z,82.78
2023-02-06T06:32:22.893Z,82.65
2023-02-06T06:33:25.390Z,82.66
2023-02-06T06:34:27.373Z,82.79
2023-02-06T06:35:29.882Z,82.66
2023-02-06T06:36:31.586Z,82.74
2023-02-06T06:37:34.131Z,82.68
2023-02-06T06:38:37.671Z,82.71
2023-02-06T06:39:45.424Z,82.74
2023-02-06T06:40:47.967Z,82.66
2023-02-06T06:41:50.530Z,82.78
2023-02-06T06:42:53.026Z,82.78
2023-02-06T06:43:56.046Z,82.78
2023-02-06T06:44:58.614Z,82.73
2023-02-06T06:46:02.540Z,82.58
2023-02-06T06:47:04.251Z,82.71
2023-02-06T06:48:06.873Z,82.69
2023-02-06T06:49:08.551Z,82.83
2023-02-06T06:50:11.384Z,82.54
2023-02-06T06:51:13.387Z,82.65
2023-02-06T06:52:24.742Z,82.80
2023-02-06T06:53:26.774Z,82.71
2023-02-06T06:54:29.349Z,82.73
2023-02-06T06:55:40.913Z,82.73
2023-02-06T06:56:43.478Z,82.81
2023-02-06T06:57:45.322Z,82.52
2023-02-06T06:58:47.856Z,82.78
2023-02-06T06:59:49.892Z,82.72
2023-02-06T07:00:54.375Z,82.66
2023-02-06T07:01:57.633Z,82.79
2023-02-06T07:03:00.278Z,82.69
2023-02-06T07:05:53.420Z,82.76
2023-02-06T07:06:55.104Z,82.58
2023-02-06T07:07:57.663Z,82.56
2023-02-06T07:09:00.196Z,83.01
2023-02-06T07:10:03.546Z,82.83
2023-02-06T07:11:05.301Z,83.12
2023-02-06T07:12:08.192Z,82.94
2023-02-06T07:13:10.750Z,83.02
2023-02-06T07:14:12.356Z,83.06
2023-02-06T07:15:15.437Z,83.14
2023-02-06T07:16:17.030Z,83.20
2023-02-06T07:17:20.911Z,82.97
2023-02-06T07:18:33.573Z,82.86
2023-02-06T07:19:35.103Z,83.01
2023-02-06T07:20:47.687Z,82.95
2023-02-06T07:21:50.215Z,83.06
2023-02-06T07:22:54.315Z,83.22
2023-02-06T07:23:57.695Z,83.02
2023-02-06T07:25:00.421Z,83.33
2023-02-06T07:26:13.001Z,83.19
2023-02-06T07:27:19.757Z,83.20
2023-02-06T07:28:21.502Z,83.38
2023-02-06T07:29:24.135Z,83.24
2023-02-06T07:30:25.819Z,83.13
2023-02-06T07:31:28.525Z,83.32
2023-02-06T07:32:33.901Z,83.41
2023-02-06T07:33:36.944Z,83.42
2023-02-06T07:34:38.624Z,83.31
2023-02-06T07:35:43.935Z,83.39
2023-02-06T07:36:47.468Z,83.41
2023-02-06T07:37:53.047Z,83.31
2023-02-06T07:38:55.550Z,83.40
2023-02-06T07:40:02.512Z,83.50
2023-02-06T07:41:15.939Z,83.38
2023-02-06T07:42:28.500Z,83.41
2023-02-06T07:43:34.687Z,83.16
2023-02-06T07:44:38.551Z,83.29
2023-02-06T07:45:51.104Z,83.56
2023-02-06T07:46:54.643Z,83.49
2023-02-06T07:47:58.437Z,83.24
2023-02-06T07:49:12.887Z,83.57
2023-02-06T07:50:14.486Z,83.62
2023-02-06T07:51:26.985Z,83.33
2023-02-06T07:52:28.566Z,83.33
2023-02-06T07:53:31.097Z,83.41
2023-02-06T07:54:33.623Z,83.33
2023-02-06T07:55:37.255Z,83.23
2023-02-06T07:56:39.048Z,83.43
2023-02-06T07:57:42.511Z,83.35
2023-02-06T07:58:50.160Z,83.44
2023-02-06T07:59:52.622Z,83.37
2023-02-06T08:00:54.764Z,83.24
2023-02-06T08:01:57.404Z,83.50
2023-02-06T08:03:00.268Z,83.36
2023-02-06T08:04:02.834Z,83.46
2023-02-06T08:05:05.559Z,83.33
2023-02-06T08:06:08.619Z,83.52
2023-02-06T08:07:14.866Z,83.58
2023-02-06T08:08:17.439Z,83.32
2023-02-06T08:09:19.151Z,83.55
2023-02-06T08:10:22.026Z,83.45
2023-02-06T08:11:29.892Z,83.61
2023-02-06T08:12:35.246Z,83.41
2023-02-06T08:13:38.852Z,83.74
2023-02-06T08:14:43.034Z,83.60
2023-02-06T08:15:45.126Z,83.48
2023-02-06T08:16:48.893Z,83.42
2023-02-06T08:17:51.552Z,83.52
2023-02-06T08:18:55.487Z,83.46
2023-02-06T08:19:58.246Z,83.30
2023-02-06T08:21:05.426Z,83.48
2023-02-06T08:22:08.035Z,83.49
2023-02-06T08:23:09.665Z,83.41
2023-02-06T08:24:13.383Z,83.55
2023-02-06T08:25:16.006Z,83.18
2023-02-06T08:26:19.550Z,83.67
2023-02-06T08:27:22.335Z,83.47
2023-02-06T08:28:26.033Z,83.50
2023-02-06T08:29:28.659Z,83.40
2023-02-06T08:30:36.858Z,83.59
2023-02-06T08:31:44.308Z,83.56
2023-02-06T08:32:46.982Z,83.64
2023-02-06T08:33:50.283Z,83.67
2023-02-06T08:34:54.136Z,83.31
2023-02-06T08:35:55.728Z,83.46
2023-02-06T08:36:58.241Z,83.33
2023-02-06T08:38:01.957Z,83.55
2023-02-06T08:39:05.646Z,83.50
2023-02-06T08:40:09.291Z,83.44
2023-02-06T08:41:18.410Z,83.44
2023-02-06T08:42:20.966Z,83.40
2023-02-06T08:43:22.571Z,83.41
2023-02-06T08:44:25.172Z,83.63
2023-02-06T08:45:26.793Z,83.76
2023-02-06T08:46:31.619Z,83.61
2023-02-06T08:47:40.022Z,83.66
2023-02-06T08:48:43.755Z,83.69
2023-02-06T08:49:46.480Z,83.78
2023-02-06T08:50:50.343Z,83.78
2023-02-06T08:51:52.826Z,83.68
2023-02-06T08:52:55.665Z,83.89
2023-02-06T08:53:58.235Z,83.79
2023-02-06T08:55:00.731Z,83.67
2023-02-06T08:56:06.054Z,83.94
2023-02-06T08:57:09.697Z,83.53
2023-02-06T08:58:12.275Z,83.47
2023-02-06T08:59:18.600Z,83.71
2023-02-06T09:00:22.166Z,83.89
2023-02-06T09:01:30.107Z,83.85
2023-02-06T09:02:42.724Z,84.06
2023-02-06T09:03:46.397Z,83.86
2023-02-06T09:04:48.892Z,84.01
2023-02-06T09:05:54.057Z,83.96
2023-02-06T09:06:56.677Z,84.11
2023-02-06T09:08:03.979Z,83.87
2023-02-06T09:09:07.864Z,83.91
2023-02-06T09:10:18.971Z,83.81
2023-02-06T09:11:29.010Z,83.92
2023-02-06T09:12:31.508Z,84.02
2023-02-06T09:13:33.318Z,83.96
2023-02-06T09:14:36.258Z,84.17
2023-02-06T09:15:39.719Z,83.87
2023-02-06T09:16:42.387Z,83.88
2023-02-06T09:17:44.858Z,83.88
2023-02-06T09:18:46.541Z,83.57
2023-02-06T09:19:49.485Z,83.78
2023-02-06T09:20:53.388Z,84.02
2023-02-06T09:21:56.004Z,83.92
2023-02-06T09:22:58.494Z,83.64
2023-02-06T09:24:03.186Z,83.77
2023-02-06T09:25:06.158Z,83.61
2023-02-06T09:26:08.926Z,83.78
2023-02-06T09:27:11.714Z,83.92
2023-02-06T09:28:21.777Z,83.70
2023-02-06T09:29:33.380Z,83.70
2023-02-06T09:30:37.381Z,83.69
2023-02-06T09:31:42.545Z,83.92
2023-02-06T09:32:45.698Z,83.67
2023-02-06T09:33:47.265Z,83.71
2023-02-06T09:34:49.759Z,83.71
2023-02-06T09:36:01.549Z,83.87
2023-02-06T09:37:04.913Z,84.00
2023-02-06T09:38:06.589Z,83.92
2023-02-06T09:39:10.086Z,83.72
2023-02-06T09:40:16.058Z,83.57
2023-02-06T09:41:22.276Z,83.69
2023-02-06T09:42:31.118Z,83.74
2023-02-06T09:43:35.338Z,83.72
2023-02-06T09:44:42.827Z,83.59
2023-02-06T09:45:45.618Z,83.92
2023-02-06T09:46:53.921Z,83.80
2023-02-06T09:47:59.228Z,83.54
2023-02-06T09:49:07.546Z,83.62
2023-02-06T09:50:25.024Z,83.52
2023-02-06T09:51:39.947Z,83.60
2023-02-06T09:56:03.914Z,83.39
2023-02-06T09:57:12.102Z,83.63
2023-02-06T09:58:23.219Z,83.64
2023-02-06T09:59:33.151Z,83.45
2023-02-06T10:00:42.978Z,83.51
2023-02-06T10:06:32.726Z,83.32
2023-02-06T10:07:57.211Z,83.12
2023-02-06T10:09:04.768Z,82.87
2023-02-06T10:10:14.392Z,83.03
2023-02-06T10:11:21.012Z,82.70
2023-02-06T10:12:29.289Z,82.87
2023-02-06T10:13:35.514Z,82.56
2023-02-06T10:14:43.411Z,82.79
2023-02-06T10:15:59.949Z,82.74
2023-02-06T10:17:15.066Z,82.18
2023-02-06T10:18:25.178Z,82.39
2023-02-06T10:19:43.545Z,82.25
2023-02-06T10:20:53.620Z,82.13
2023-02-06T10:22:03.850Z,81.90
2023-02-06T10:23:14.775Z,81.83
2023-02-06T10:24:28.897Z,81.61
2023-02-06T10:25:34.285Z,81.90
2023-02-06T10:26:38.448Z,81.46
2023-02-06T10:27:45.062Z,81.67
2023-02-06T10:28:50.066Z,81.30
2023-02-06T10:29:51.638Z,81.42
2023-02-06T10:31:14.386Z,81.51
2023-02-06T10:32:30.289Z,80.88
2023-02-06T10:33:46.184Z,81.15
2023-02-06T10:35:03.389Z,80.85
2023-02-06T10:36:16.246Z,80.80
2023-02-06T10:37:30.526Z,80.65
2023-02-06T10:38:52.831Z,80.79
2023-02-06T10:40:27.359Z,80.99
2023-02-06T10:41:40.265Z,80.22
2023-02-06T10:42:51.485Z,80.30
2023-02-06T10:44:00.143Z,80.25
2023-02-06T10:45:19.567Z,80.42
2023-02-06T10:46:42.428Z,80.20
2023-02-06T10:47:54.255Z,80.00
2023-02-06T10:49:03.410Z,80.29
2023-02-06T10:50:19.515Z,80.21
2023-02-06T10:51:29.057Z,80.32
2023-02-06T10:52:36.057Z,80.15
2023-02-06T10:53:46.486Z,79.88
2023-02-06T10:55:02.244Z,79.87
2023-02-06T10:56:10.912Z,80.20
2023-02-06T10:57:25.282Z,80.45
2023-02-06T10:58:32.055Z,79.96
2023-02-06T10:59:38.690Z,80.23
2023-02-06T11:00:53.051Z,80.41
2023-02-06T11:02:06.445Z,79.86
2023-02-06T11:03:16.487Z,79.73
2023-02-06T11:04:34.112Z,79.91
2023-02-06T11:05:36.817Z,79.58
2023-02-06T11:06:46.675Z,79.35
2023-02-06T11:07:54.005Z,79.50
2023-02-06T11:08:57.041Z,79.41
2023-02-06T11:10:00.822Z,79.37
2023-02-06T11:11:20.157Z,79.28
2023-02-06T11:12:31.252Z,79.29
2023-02-06T11:13:35.981Z,79.30
2023-02-06T11:14:40.905Z,79.51
2023-02-06T11:15:53.698Z,79.36
2023-02-06T11:16:59.845Z,79.27
2023-02-06T11:18:05.553Z,79.33
2023-02-06T11:19:18.220Z,79.28
2023-02-06T11:20:33.291Z,78.97
2023-02-06T11:21:55.075Z,78.87
2023-02-06T11:23:15.503Z,79.12
2023-02-06T11:24:22.546Z,78.63
2023-02-06T11:25:29.841Z,79.16
2023-02-06T11:26:31.418Z,79.00
2023-02-06T11:27:36.822Z,79.08
2023-02-06T11:28:42.278Z,79.11
2023-02-06T11:29:49.851Z,79.07
2023-02-06T11:31:00.099Z,79.40
2023-02-06T11:32:05.315Z,79.29
2023-02-06T11:33:19.414Z,79.65
2023-02-06T11:34:26.935Z,79.53
2023-02-06T11:35:32.510Z,79.19
2023-02-06T11:36:38.705Z,79.72
2023-02-06T11:37:42.783Z,79.40
2023-02-06T11:38:55.565Z,79.21
2023-02-06T11:40:21.234Z,79.01
2023-02-06T11:41:24.382Z,78.93
2023-02-06T11:42:28.350Z,78.83
2023-02-06T11:43:33.217Z,78.91
2023-02-06T11:44:37.635Z,78.77
2023-02-06T11:45:41.214Z,78.56
2023-02-06T11:46:43.841Z,78.57
2023-02-06T11:47:45.358Z,78.59
2023-02-06T11:48:49.782Z,78.27
2023-02-06T11:49:52.316Z,78.19
2023-02-06T11:50:54.873Z,78.34
2023-02-06T11:52:00.412Z,77.97
2023-02-06T11:53:10.750Z,78.00
2023-02-06T11:54:23.109Z,78.14
2023-02-06T11:55:27.708Z,77.61
2023-02-06T11:56:32.286Z,78.07
2023-02-06T11:57:35.158Z,78.14
2023-02-06T11:58:37.016Z,77.88
2023-02-06T11:59:52.340Z,77.71
2023-02-06T12:01:04.157Z,77.87
2023-02-06T12:02:26.786Z,77.81
2023-02-06T12:03:33.147Z,78.01
2023-02-06T12:04:37.981Z,77.74
2023-02-06T12:05:43.003Z,77.50
2023-02-06T12:06:44.634Z,77.72
2023-02-06T12:07:52.951Z,77.69
2023-02-06T12:08:56.472Z,77.79
2023-02-06T12:10:02.626Z,77.38
2023-02-06T12:11:12.547Z,77.22
2023-02-06T12:12:23.720Z,77.13
2023-02-06T12:13:40.798Z,76.86
2023-02-06T12:14:50.188Z,76.46
2023-02-06T12:15:57.521Z,76.76
2023-02-06T12:17:04.093Z,76.48
2023-02-06T12:18:13.510Z,76.47
2023-02-06T12:19:19.926Z,76.31
2023-02-06T12:20:26.833Z,76.08
2023-02-06T12:21:41.351Z,76.16
2023-02-06T12:22:50.431Z,75.95
2023-02-06T12:23:55.916Z,76.13
2023-02-06T12:25:01.769Z,76.05
2023-02-06T12:26:09.953Z,75.72
2023-02-06T12:27:15.644Z,75.71
2023-02-06T12:28:24.908Z,75.84
2023-02-06T12:29:34.313Z,75.66
2023-02-06T12:30:41.795Z,75.86
2023-02-06T12:31:52.904Z,75.46
2023-02-06T12:33:05.784Z,75.37
2023-02-06T12:34:15.455Z,75.30
2023-02-06T12:35:22.950Z,75.10
2023-02-06T12:36:31.548Z,75.03
2023-02-06T12:37:40.507Z,75.15
2023-02-06T12:38:50.031Z,75.38
2023-02-06T12:39:52.272Z,75.20
2023-02-06T12:41:07.320Z,74.97
2023-02-06T12:42:32.781Z,75.00
2023-02-06T12:43:38.949Z,75.33
2023-02-06T12:44:46.087Z,74.97
2023-02-06T12:45:55.285Z,74.87
2023-02-06T12:47:06.578Z,74.65
2023-02-06T12:48:17.614Z,75.20
2023-02-06T12:49:25.325Z,74.82
2023-02-06T12:50:44.190Z,75.03
2023-02-06T12:51:54.954Z,74.95
2023-02-06T12:53:02.108Z,74.85
2023-02-06T12:54:12.478Z,74.66
2023-02-06T12:55:20.593Z,74.66
2023-02-06T12:56:28.647Z,74.57
2023-02-06T13:00:13.824Z,74.63
2023-02-06T13:01:37.901Z,74.75
2023-02-06T13:03:04.702Z,74.66
2023-02-06T13:04:16.244Z,74.49
2023-02-06T13:05:25.266Z,74.72
2023-02-06T13:06:30.801Z,74.59
2023-02-06T13:07:49.079Z,74.36
2023-02-06T13:08:57.655Z,74.32
2023-02-06T13:10:01.701Z,74.32
2023-02-06T13:11:07.030Z,74.19
2023-02-06T13:12:14.878Z,74.06
2023-02-06T13:13:28.778Z,74.60
2023-02-06T13:14:31.395Z,74.44
2023-02-06T13:15:41.198Z,74.45
2023-02-06T13:16:54.835Z,74.24
2023-02-06T13:17:57.726Z,74.50
2023-02-06T13:19:04.195Z,74.34
2023-02-06T13:20:09.342Z,74.51
2023-02-06T13:21:28.329Z,74.57
2023-02-06T13:22:44.849Z,74.23
2023-02-06T13:24:16.401Z,74.64
2023-02-06T13:25:55.473Z,74.15
2023-02-06T13:27:15.049Z,74.52
2023-02-06T13:28:40.678Z,74.48
2023-02-06T13:29:45.076Z,74.39
2023-02-06T13:30:48.250Z,74.07
2023-02-06T13:31:51.191Z,74.47
2023-02-06T13:32:56.864Z,74.20
2023-02-06T13:34:02.287Z,74.44
2023-02-06T13:35:27.204Z,74.41
2023-02-06T13:36:49.826Z,74.52
2023-02-06T13:38:11.701Z,74.32
2023-02-06T13:39:22.635Z,74.31
2023-02-06T13:40:30.589Z,74.47
2023-02-06T13:41:44.531Z,74.53
2023-02-06T13:42:52.603Z,74.21
2023-02-06T13:43:57.390Z,74.46
2023-02-06T13:45:03.939Z,74.36
2023-02-06T13:46:10.287Z,74.51
2023-02-06T13:47:26.511Z,74.43
2023-02-06T13:48:46.868Z,74.42
2023-02-06T13:50:22.085Z,74.71
2023-02-06T13:51:42.747Z,74.25
2023-02-06T13:52:54.700Z,74.57
2023-02-06T13:54:36.808Z,74.73
2023-02-06T13:55:58.089Z,74.73
2023-02-06T13:57:17.495Z,74.79
2023-02-06T13:58:41.886Z,74.88
2023-02-06T14:02:05.224Z,74.90
2023-02-06T14:03:13.419Z,75.25
2023-02-06T14:04:23.972Z,75.33
2023-02-06T14:05:41.468Z,74.95
2023-02-06T14:07:27.390Z,74.87
2023-02-06T14:08:44.580Z,75.20
2023-02-06T14:10:05.129Z,74.82
2023-02-06T14:12:02.668Z,74.93
2023-02-06T14:13:19.032Z,74.79
2023-02-06T14:14:37.164Z,74.76
2023-02-06T14:15:50.342Z,74.80
2023-02-06T14:17:04.791Z,74.83
2023-02-06T14:18:27.947Z,75.12
2023-02-06T14:19:43.916Z,75.00
2023-02-06T14:20:52.916Z,75.09
2023-02-06T14:22:03.990Z,75.36
2023-02-06T14:23:17.503Z,75.29
2023-02-06T14:24:40.360Z,75.32
2023-02-06T14:25:55.955Z,75.41
2023-02-06T14:27:12.590Z,75.33
2023-02-06T14:28:25.214Z,75.47
2023-02-06T14:29:41.466Z,75.27
2023-02-06T14:30:51.186Z,75.38
2023-02-06T14:32:12.425Z,75.34
2023-02-06T14:33:36.726Z,75.60
2023-02-06T14:34:54.740Z,75.51
2023-02-06T14:36:09.332Z,75.80
2023-02-06T14:37:39.231Z,75.67
2023-02-06T14:39:10.289Z,75.54